sensor_id;sensor_type;location;lat;lon;timestamp;P1;durP1;ratioP1;P2;durP2;ratioP2
52948;SDS011;38812;50.942;3.644;2023-03-04T00:02:12;21.25;;;4.18;;
52948;SDS011;38812;50.942;3.644;2023-03-04T00:04:37;21.23;;;3.92;;
52948;SDS011;38812;50.942;3.644;2023-03-04T00:07:02;21.08;;;5.57;;
52948;SDS011;38812;50.942;3.644;2023-03-04T00:09:28;18.42;;;4.20;;
52948;SDS011;38812;50.942;3.644;2023-03-04T00:11:53;15.90;;;3.92;;
52948;SDS011;38812;50.942;3.644;2023-03-04T00:14:19;21.00;;;4.53;;
52948;SDS011;38812;50.942;3.644;2023-03-04T00:16:44;19.65;;;4.95;;
52948;SDS011;38812;50.942;3.644;2023-03-04T00:19:10;17.38;;;4.68;;
52948;SDS011;38812;50.942;3.644;2023-03-04T00:21:35;17.67;;;4.63;;
52948;SDS011;38812;50.942;3.644;2023-03-04T00:24:00;22.83;;;4.30;;
52948;SDS011;38812;50.942;3.644;2023-03-04T00:26:26;19.17;;;4.55;;
52948;SDS011;38812;50.942;3.644;2023-03-04T00:28:51;11.55;;;3.05;;
52948;SDS011;38812;50.942;3.644;2023-03-04T00:31:17;13.90;;;4.05;;
52948;SDS011;38812;50.942;3.644;2023-03-04T00:33:42;23.50;;;4.32;;
52948;SDS011;38812;50.942;3.644;2023-03-04T00:36:08;23.25;;;4.00;;
52948;SDS011;38812;50.942;3.644;2023-03-04T00:38:34;22.40;;;4.07;;
52948;SDS011;38812;50.942;3.644;2023-03-04T00:41:00;21.98;;;3.45;;
52948;SDS011;38812;50.942;3.644;2023-03-04T00:43:25;17.98;;;2.90;;
52948;SDS011;38812;50.942;3.644;2023-03-04T00:45:50;21.33;;;2.90;;
52948;SDS011;38812;50.942;3.644;2023-03-04T00:48:16;20.73;;;2.90;;
52948;SDS011;38812;50.942;3.644;2023-03-04T00:50:42;15.57;;;2.55;;
52948;SDS011;38812;50.942;3.644;2023-03-04T00:53:08;10.15;;;2.35;;
52948;SDS011;38812;50.942;3.644;2023-03-04T00:55:34;14.98;;;3.58;;
52948;SDS011;38812;50.942;3.644;2023-03-04T00:57:59;24.02;;;6.43;;
52948;SDS011;38812;50.942;3.644;2023-03-04T01:00:25;23.30;;;3.75;;
52948;SDS011;38812;50.942;3.644;2023-03-04T01:02:50;16.50;;;2.70;;
52948;SDS011;38812;50.942;3.644;2023-03-04T01:05:16;24.58;;;2.85;;
52948;SDS011;38812;50.942;3.644;2023-03-04T01:07:41;18.48;;;3.17;;
52948;SDS011;38812;50.942;3.644;2023-03-04T01:10:09;16.52;;;2.95;;
52948;SDS011;38812;50.942;3.644;2023-03-04T01:12:36;21.30;;;3.00;;
52948;SDS011;38812;50.942;3.644;2023-03-04T01:15:02;19.30;;;3.83;;
52948;SDS011;38812;50.942;3.644;2023-03-04T01:17:28;17.80;;;2.63;;
52948;SDS011;38812;50.942;3.644;2023-03-04T01:19:53;16.77;;;3.00;;
52948;SDS011;38812;50.942;3.644;2023-03-04T01:22:19;19.17;;;3.08;;
52948;SDS011;38812;50.942;3.644;2023-03-04T01:24:44;17.13;;;3.17;;
52948;SDS011;38812;50.942;3.644;2023-03-04T01:27:10;17.10;;;3.45;;
52948;SDS011;38812;50.942;3.644;2023-03-04T01:29:36;19.30;;;3.58;;
52948;SDS011;38812;50.942;3.644;2023-03-04T01:32:01;19.02;;;2.97;;
52948;SDS011;38812;50.942;3.644;2023-03-04T01:34:27;11.20;;;2.33;;
52948;SDS011;38812;50.942;3.644;2023-03-04T01:36:52;18.13;;;2.50;;
52948;SDS011;38812;50.942;3.644;2023-03-04T01:39:17;23.73;;;2.47;;
52948;SDS011;38812;50.942;3.644;2023-03-04T01:41:43;15.70;;;2.15;;
52948;SDS011;38812;50.942;3.644;2023-03-04T01:44:08;18.58;;;2.45;;
52948;SDS011;38812;50.942;3.644;2023-03-04T01:46:36;15.93;;;2.72;;
52948;SDS011;38812;50.942;3.644;2023-03-04T01:49:02;24.15;;;3.75;;
52948;SDS011;38812;50.942;3.644;2023-03-04T01:51:28;21.13;;;4.50;;
52948;SDS011;38812;50.942;3.644;2023-03-04T01:53:53;21.33;;;3.33;;
52948;SDS011;38812;50.942;3.644;2023-03-04T01:56:23;18.65;;;3.42;;
52948;SDS011;38812;50.942;3.644;2023-03-04T02:01:34;17.67;;;3.13;;
52948;SDS011;38812;50.942;3.644;2023-03-04T02:04:00;17.25;;;3.50;;
52948;SDS011;38812;50.942;3.644;2023-03-04T02:06:25;18.25;;;2.55;;
52948;SDS011;38812;50.942;3.644;2023-03-04T02:08:51;17.60;;;3.78;;
52948;SDS011;38812;50.942;3.644;2023-03-04T02:11:16;20.20;;;2.45;;
52948;SDS011;38812;50.942;3.644;2023-03-04T02:13:42;13.40;;;4.20;;
52948;SDS011;38812;50.942;3.644;2023-03-04T02:16:07;21.38;;;3.30;;
52948;SDS011;38812;50.942;3.644;2023-03-04T02:18:33;24.80;;;2.88;;
52948;SDS011;38812;50.942;3.644;2023-03-04T02:21:04;12.90;;;1.85;;
52948;SDS011;38812;50.942;3.644;2023-03-04T02:26:20;18.92;;;3.20;;
52948;SDS011;38812;50.942;3.644;2023-03-04T02:28:48;16.88;;;3.08;;
52948;SDS011;38812;50.942;3.644;2023-03-04T02:31:34;22.05;;;3.03;;
52948;SDS011;38812;50.942;3.644;2023-03-04T02:34:05;14.30;;;2.45;;
52948;SDS011;38812;50.942;3.644;2023-03-04T02:36:53;18.83;;;2.33;;
52948;SDS011;38812;50.942;3.644;2023-03-04T02:41:44;21.17;;;2.88;;
52948;SDS011;38812;50.942;3.644;2023-03-04T02:44:15;23.63;;;3.60;;
52948;SDS011;38812;50.942;3.644;2023-03-04T02:46:42;12.77;;;1.83;;
52948;SDS011;38812;50.942;3.644;2023-03-04T02:49:08;12.98;;;2.58;;
52948;SDS011;38812;50.942;3.644;2023-03-04T02:51:33;21.88;;;4.22;;
52948;SDS011;38812;50.942;3.644;2023-03-04T02:53:59;20.10;;;2.92;;
52948;SDS011;38812;50.942;3.644;2023-03-04T02:56:24;20.10;;;3.53;;
52948;SDS011;38812;50.942;3.644;2023-03-04T02:58:49;15.40;;;3.78;;
52948;SDS011;38812;50.942;3.644;2023-03-04T03:01:15;18.25;;;2.55;;
52948;SDS011;38812;50.942;3.644;2023-03-04T03:03:40;24.55;;;3.95;;
52948;SDS011;38812;50.942;3.644;2023-03-04T03:06:05;15.85;;;2.50;;
52948;SDS011;38812;50.942;3.644;2023-03-04T03:08:31;18.95;;;3.25;;
52948;SDS011;38812;50.942;3.644;2023-03-04T03:10:56;20.25;;;2.33;;
52948;SDS011;38812;50.942;3.644;2023-03-04T03:13:22;16.20;;;3.10;;
52948;SDS011;38812;50.942;3.644;2023-03-04T03:15:48;21.20;;;2.60;;
52948;SDS011;38812;50.942;3.644;2023-03-04T03:18:14;13.18;;;2.45;;
52948;SDS011;38812;50.942;3.644;2023-03-04T03:20:39;18.95;;;2.45;;
52948;SDS011;38812;50.942;3.644;2023-03-04T03:23:06;11.88;;;2.22;;
52948;SDS011;38812;50.942;3.644;2023-03-04T03:25:31;15.90;;;2.13;;
52948;SDS011;38812;50.942;3.644;2023-03-04T03:27:56;19.98;;;3.00;;
52948;SDS011;38812;50.942;3.644;2023-03-04T03:30:22;16.48;;;2.25;;
52948;SDS011;38812;50.942;3.644;2023-03-04T03:32:48;18.80;;;3.45;;
52948;SDS011;38812;50.942;3.644;2023-03-04T03:35:13;25.77;;;3.65;;
52948;SDS011;38812;50.942;3.644;2023-03-04T03:37:38;16.05;;;2.22;;
52948;SDS011;38812;50.942;3.644;2023-03-04T03:40:04;21.35;;;2.80;;
52948;SDS011;38812;50.942;3.644;2023-03-04T03:42:30;14.68;;;2.10;;
52948;SDS011;38812;50.942;3.644;2023-03-04T03:44:55;12.43;;;2.05;;
52948;SDS011;38812;50.942;3.644;2023-03-04T03:47:21;17.17;;;2.78;;
52948;SDS011;38812;50.942;3.644;2023-03-04T03:49:46;15.57;;;2.67;;
52948;SDS011;38812;50.942;3.644;2023-03-04T03:52:11;14.70;;;2.45;;
52948;SDS011;38812;50.942;3.644;2023-03-04T03:54:38;12.13;;;3.30;;
52948;SDS011;38812;50.942;3.644;2023-03-04T03:57:03;17.35;;;2.22;;
52948;SDS011;38812;50.942;3.644;2023-03-04T03:59:28;15.02;;;2.28;;
52948;SDS011;38812;50.942;3.644;2023-03-04T04:01:54;18.95;;;2.53;;
52948;SDS011;38812;50.942;3.644;2023-03-04T04:04:19;22.33;;;3.03;;
52948;SDS011;38812;50.942;3.644;2023-03-04T04:06:45;18.65;;;2.58;;
52948;SDS011;38812;50.942;3.644;2023-03-04T04:09:10;10.93;;;2.50;;
52948;SDS011;38812;50.942;3.644;2023-03-04T04:11:36;11.90;;;2.28;;
52948;SDS011;38812;50.942;3.644;2023-03-04T04:14:01;9.55;;;1.98;;
52948;SDS011;38812;50.942;3.644;2023-03-04T04:16:26;12.38;;;2.60;;
52948;SDS011;38812;50.942;3.644;2023-03-04T04:18:52;23.92;;;2.78;;
52948;SDS011;38812;50.942;3.644;2023-03-04T04:21:17;18.50;;;2.05;;
52948;SDS011;38812;50.942;3.644;2023-03-04T04:23:43;18.58;;;2.20;;
52948;SDS011;38812;50.942;3.644;2023-03-04T04:26:08;20.00;;;2.28;;
52948;SDS011;38812;50.942;3.644;2023-03-04T04:28:33;15.15;;;2.97;;
52948;SDS011;38812;50.942;3.644;2023-03-04T04:30:59;25.77;;;3.45;;
52948;SDS011;38812;50.942;3.644;2023-03-04T04:33:24;21.02;;;3.78;;
52948;SDS011;38812;50.942;3.644;2023-03-04T04:35:50;16.05;;;2.45;;
52948;SDS011;38812;50.942;3.644;2023-03-04T04:38:15;15.63;;;2.45;;
52948;SDS011;38812;50.942;3.644;2023-03-04T04:40:41;16.67;;;1.83;;
52948;SDS011;38812;50.942;3.644;2023-03-04T04:43:07;10.00;;;2.65;;
52948;SDS011;38812;50.942;3.644;2023-03-04T04:45:32;18.42;;;2.17;;
52948;SDS011;38812;50.942;3.644;2023-03-04T04:47:58;14.35;;;2.35;;
52948;SDS011;38812;50.942;3.644;2023-03-04T04:50:24;21.58;;;3.05;;
52948;SDS011;38812;50.942;3.644;2023-03-04T04:52:50;12.85;;;1.90;;
52948;SDS011;38812;50.942;3.644;2023-03-04T04:55:16;17.85;;;2.47;;
52948;SDS011;38812;50.942;3.644;2023-03-04T04:57:42;12.98;;;3.50;;
52948;SDS011;38812;50.942;3.644;2023-03-04T05:00:07;10.10;;;2.90;;
52948;SDS011;38812;50.942;3.644;2023-03-04T05:02:34;41.22;;;14.98;;
52948;SDS011;38812;50.942;3.644;2023-03-04T05:05:01;16.77;;;3.40;;
52948;SDS011;38812;50.942;3.644;2023-03-04T05:07:28;11.57;;;2.45;;
52948;SDS011;38812;50.942;3.644;2023-03-04T05:09:53;18.75;;;2.90;;
52948;SDS011;38812;50.942;3.644;2023-03-04T05:12:18;10.05;;;2.45;;
52948;SDS011;38812;50.942;3.644;2023-03-04T05:14:44;15.90;;;2.20;;
52948;SDS011;38812;50.942;3.644;2023-03-04T05:17:09;21.02;;;2.55;;
52948;SDS011;38812;50.942;3.644;2023-03-04T05:19:35;15.93;;;2.90;;
52948;SDS011;38812;50.942;3.644;2023-03-04T05:22:00;20.30;;;2.45;;
52948;SDS011;38812;50.942;3.644;2023-03-04T05:24:25;19.08;;;2.78;;
52948;SDS011;38812;50.942;3.644;2023-03-04T05:26:51;18.20;;;4.15;;
52948;SDS011;38812;50.942;3.644;2023-03-04T05:29:16;15.52;;;2.40;;
52948;SDS011;38812;50.942;3.644;2023-03-04T05:31:41;18.92;;;2.78;;
52948;SDS011;38812;50.942;3.644;2023-03-04T05:34:08;24.30;;;5.78;;
52948;SDS011;38812;50.942;3.644;2023-03-04T05:36:33;15.00;;;2.90;;
52948;SDS011;38812;50.942;3.644;2023-03-04T05:38:58;18.75;;;2.72;;
52948;SDS011;38812;50.942;3.644;2023-03-04T05:41:24;16.38;;;3.45;;
52948;SDS011;38812;50.942;3.644;2023-03-04T05:43:49;19.40;;;2.22;;
52948;SDS011;38812;50.942;3.644;2023-03-04T05:46:15;16.00;;;3.85;;
52948;SDS011;38812;50.942;3.644;2023-03-04T05:48:42;15.18;;;2.67;;
52948;SDS011;38812;50.942;3.644;2023-03-04T05:51:08;12.10;;;2.40;;
52948;SDS011;38812;50.942;3.644;2023-03-04T05:53:35;19.98;;;3.05;;
52948;SDS011;38812;50.942;3.644;2023-03-04T05:56:11;21.85;;;4.38;;
52948;SDS011;38812;50.942;3.644;2023-03-04T05:58:40;16.15;;;3.03;;
52948;SDS011;38812;50.942;3.644;2023-03-04T06:01:06;16.00;;;2.53;;
52948;SDS011;38812;50.942;3.644;2023-03-04T06:03:32;15.05;;;2.08;;
52948;SDS011;38812;50.942;3.644;2023-03-04T06:05:57;19.00;;;2.13;;
52948;SDS011;38812;50.942;3.644;2023-03-04T06:08:23;9.15;;;2.35;;
52948;SDS011;38812;50.942;3.644;2023-03-04T06:10:50;14.07;;;2.70;;
52948;SDS011;38812;50.942;3.644;2023-03-04T06:13:17;18.73;;;1.92;;
52948;SDS011;38812;50.942;3.644;2023-03-04T06:15:42;12.90;;;2.47;;
52948;SDS011;38812;50.942;3.644;2023-03-04T06:18:08;14.25;;;2.80;;
52948;SDS011;38812;50.942;3.644;2023-03-04T06:20:34;9.95;;;2.47;;
52948;SDS011;38812;50.942;3.644;2023-03-04T06:22:59;22.00;;;3.10;;
52948;SDS011;38812;50.942;3.644;2023-03-04T06:25:25;12.10;;;3.60;;
52948;SDS011;38812;50.942;3.644;2023-03-04T06:27:50;14.43;;;2.50;;
52948;SDS011;38812;50.942;3.644;2023-03-04T06:30:16;9.95;;;3.42;;
52948;SDS011;38812;50.942;3.644;2023-03-04T06:32:42;14.07;;;2.10;;
52948;SDS011;38812;50.942;3.644;2023-03-04T06:35:12;18.35;;;2.03;;
52948;SDS011;38812;50.942;3.644;2023-03-04T06:37:39;9.20;;;2.45;;
52948;SDS011;38812;50.942;3.644;2023-03-04T06:40:05;13.30;;;2.38;;
52948;SDS011;38812;50.942;3.644;2023-03-04T06:42:31;19.05;;;2.08;;
52948;SDS011;38812;50.942;3.644;2023-03-04T06:44:58;19.83;;;2.40;;
52948;SDS011;38812;50.942;3.644;2023-03-04T06:47:23;14.38;;;1.83;;
52948;SDS011;38812;50.942;3.644;2023-03-04T06:49:48;9.85;;;1.70;;
52948;SDS011;38812;50.942;3.644;2023-03-04T06:52:14;11.43;;;2.63;;
52948;SDS011;38812;50.942;3.644;2023-03-04T06:54:39;13.52;;;1.98;;
52948;SDS011;38812;50.942;3.644;2023-03-04T06:57:05;22.88;;;3.13;;
52948;SDS011;38812;50.942;3.644;2023-03-04T06:59:31;14.15;;;2.25;;
52948;SDS011;38812;50.942;3.644;2023-03-04T07:01:56;11.20;;;1.90;;
52948;SDS011;38812;50.942;3.644;2023-03-04T07:04:22;10.63;;;2.28;;
52948;SDS011;38812;50.942;3.644;2023-03-04T07:06:48;11.43;;;2.08;;
52948;SDS011;38812;50.942;3.644;2023-03-04T07:09:14;10.65;;;1.88;;
52948;SDS011;38812;50.942;3.644;2023-03-04T07:11:39;14.48;;;1.83;;
52948;SDS011;38812;50.942;3.644;2023-03-04T07:14:05;22.27;;;2.33;;
52948;SDS011;38812;50.942;3.644;2023-03-04T07:16:30;17.13;;;4.00;;
52948;SDS011;38812;50.942;3.644;2023-03-04T07:18:55;11.25;;;2.00;;
52948;SDS011;38812;50.942;3.644;2023-03-04T07:21:21;7.55;;;1.67;;
52948;SDS011;38812;50.942;3.644;2023-03-04T07:23:46;18.50;;;3.88;;
52948;SDS011;38812;50.942;3.644;2023-03-04T07:26:12;15.07;;;2.72;;
52948;SDS011;38812;50.942;3.644;2023-03-04T07:28:37;15.02;;;1.90;;
52948;SDS011;38812;50.942;3.644;2023-03-04T07:33:46;16.20;;;2.38;;
52948;SDS011;38812;50.942;3.644;2023-03-04T07:36:11;15.93;;;1.88;;
52948;SDS011;38812;50.942;3.644;2023-03-04T07:38:41;12.65;;;2.40;;
52948;SDS011;38812;50.942;3.644;2023-03-04T07:41:07;11.63;;;1.98;;
52948;SDS011;38812;50.942;3.644;2023-03-04T07:43:32;11.25;;;1.75;;
52948;SDS011;38812;50.942;3.644;2023-03-04T07:45:59;12.40;;;1.70;;
52948;SDS011;38812;50.942;3.644;2023-03-04T07:48:26;14.95;;;2.90;;
52948;SDS011;38812;50.942;3.644;2023-03-04T07:51:01;18.25;;;2.70;;
52948;SDS011;38812;50.942;3.644;2023-03-04T07:53:38;14.77;;;2.58;;
52948;SDS011;38812;50.942;3.644;2023-03-04T07:56:05;12.10;;;2.17;;
52948;SDS011;38812;50.942;3.644;2023-03-04T07:58:32;12.55;;;2.83;;
52948;SDS011;38812;50.942;3.644;2023-03-04T08:00:58;20.10;;;2.38;;
52948;SDS011;38812;50.942;3.644;2023-03-04T08:03:23;12.85;;;2.03;;
52948;SDS011;38812;50.942;3.644;2023-03-04T08:05:49;12.18;;;2.70;;
52948;SDS011;38812;50.942;3.644;2023-03-04T08:08:14;19.05;;;2.08;;
52948;SDS011;38812;50.942;3.644;2023-03-04T08:10:40;15.68;;;2.95;;
52948;SDS011;38812;50.942;3.644;2023-03-04T08:13:06;15.32;;;3.30;;
52948;SDS011;38812;50.942;3.644;2023-03-04T08:15:31;7.68;;;1.73;;
52948;SDS011;38812;50.942;3.644;2023-03-04T08:17:59;13.52;;;2.53;;
52948;SDS011;38812;50.942;3.644;2023-03-04T08:20:25;10.32;;;2.30;;
52948;SDS011;38812;50.942;3.644;2023-03-04T08:22:51;12.88;;;2.20;;
52948;SDS011;38812;50.942;3.644;2023-03-04T08:25:16;18.88;;;2.35;;
52948;SDS011;38812;50.942;3.644;2023-03-04T08:27:42;15.68;;;2.95;;
52948;SDS011;38812;50.942;3.644;2023-03-04T08:30:08;13.77;;;3.20;;
52948;SDS011;38812;50.942;3.644;2023-03-04T08:32:34;14.80;;;2.97;;
52948;SDS011;38812;50.942;3.644;2023-03-04T08:34:59;14.18;;;2.78;;
52948;SDS011;38812;50.942;3.644;2023-03-04T08:37:26;13.35;;;2.00;;
52948;SDS011;38812;50.942;3.644;2023-03-04T08:39:53;12.48;;;2.08;;
52948;SDS011;38812;50.942;3.644;2023-03-04T08:42:19;20.85;;;3.63;;
52948;SDS011;38812;50.942;3.644;2023-03-04T08:44:44;12.32;;;2.08;;
52948;SDS011;38812;50.942;3.644;2023-03-04T08:47:10;17.60;;;2.58;;
52948;SDS011;38812;50.942;3.644;2023-03-04T08:49:36;7.72;;;1.65;;
52948;SDS011;38812;50.942;3.644;2023-03-04T08:52:02;10.52;;;2.38;;
52948;SDS011;38812;50.942;3.644;2023-03-04T08:54:27;9.88;;;1.75;;
52948;SDS011;38812;50.942;3.644;2023-03-04T08:56:53;10.95;;;1.60;;
52948;SDS011;38812;50.942;3.644;2023-03-04T08:59:18;9.80;;;1.67;;
52948;SDS011;38812;50.942;3.644;2023-03-04T09:01:43;9.30;;;1.73;;
52948;SDS011;38812;50.942;3.644;2023-03-04T09:04:09;9.73;;;2.35;;
52948;SDS011;38812;50.942;3.644;2023-03-04T09:06:34;10.55;;;1.55;;
52948;SDS011;38812;50.942;3.644;2023-03-04T09:09:00;8.85;;;1.63;;
52948;SDS011;38812;50.942;3.644;2023-03-04T09:11:25;14.38;;;2.17;;
52948;SDS011;38812;50.942;3.644;2023-03-04T09:13:51;13.38;;;1.88;;
52948;SDS011;38812;50.942;3.644;2023-03-04T09:16:16;14.27;;;2.60;;
52948;SDS011;38812;50.942;3.644;2023-03-04T09:18:42;8.63;;;1.48;;
52948;SDS011;38812;50.942;3.644;2023-03-04T09:21:08;20.75;;;2.00;;
52948;SDS011;38812;50.942;3.644;2023-03-04T09:23:34;10.85;;;2.03;;
52948;SDS011;38812;50.942;3.644;2023-03-04T09:26:00;12.65;;;1.50;;
52948;SDS011;38812;50.942;3.644;2023-03-04T09:28:25;9.80;;;1.63;;
52948;SDS011;38812;50.942;3.644;2023-03-04T09:30:51;12.32;;;1.80;;
52948;SDS011;38812;50.942;3.644;2023-03-04T09:33:16;7.47;;;1.90;;
52948;SDS011;38812;50.942;3.644;2023-03-04T09:35:42;9.95;;;1.83;;
52948;SDS011;38812;50.942;3.644;2023-03-04T09:38:08;17.80;;;4.55;;
52948;SDS011;38812;50.942;3.644;2023-03-04T09:43:10;14.00;;;3.00;;
52948;SDS011;38812;50.942;3.644;2023-03-04T09:45:50;14.65;;;2.97;;
52948;SDS011;38812;50.942;3.644;2023-03-04T09:48:22;10.90;;;1.80;;
52948;SDS011;38812;50.942;3.644;2023-03-04T09:54:04;11.20;;;2.33;;
52948;SDS011;38812;50.942;3.644;2023-03-04T09:56:35;11.35;;;2.10;;
52948;SDS011;38812;50.942;3.644;2023-03-04T10:01:58;7.32;;;1.88;;
52948;SDS011;38812;50.942;3.644;2023-03-04T10:04:33;7.45;;;2.05;;
52948;SDS011;38812;50.942;3.644;2023-03-04T10:07:05;9.45;;;1.80;;
52948;SDS011;38812;50.942;3.644;2023-03-04T10:09:45;10.98;;;1.75;;
52948;SDS011;38812;50.942;3.644;2023-03-04T10:12:12;14.10;;;2.17;;
52948;SDS011;38812;50.942;3.644;2023-03-04T10:14:44;15.40;;;2.60;;
52948;SDS011;38812;50.942;3.644;2023-03-04T10:17:39;12.32;;;1.88;;
52948;SDS011;38812;50.942;3.644;2023-03-04T10:22:43;7.88;;;2.20;;
52948;SDS011;38812;50.942;3.644;2023-03-04T10:27:59;10.32;;;2.53;;
52948;SDS011;38812;50.942;3.644;2023-03-04T10:33:18;14.35;;;2.05;;
52948;SDS011;38812;50.942;3.644;2023-03-04T10:35:50;12.15;;;2.85;;
52948;SDS011;38812;50.942;3.644;2023-03-04T10:38:21;13.93;;;2.30;;
52948;SDS011;38812;50.942;3.644;2023-03-04T10:40:47;8.55;;;2.20;;
52948;SDS011;38812;50.942;3.644;2023-03-04T10:43:14;15.30;;;1.95;;
52948;SDS011;38812;50.942;3.644;2023-03-04T10:45:41;13.00;;;2.85;;
52948;SDS011;38812;50.942;3.644;2023-03-04T10:48:07;13.27;;;2.20;;
52948;SDS011;38812;50.942;3.644;2023-03-04T10:50:43;12.73;;;2.10;;
52948;SDS011;38812;50.942;3.644;2023-03-04T10:53:15;8.68;;;2.53;;
52948;SDS011;38812;50.942;3.644;2023-03-04T10:55:54;13.75;;;2.33;;
52948;SDS011;38812;50.942;3.644;2023-03-04T10:58:19;8.65;;;2.20;;
52948;SDS011;38812;50.942;3.644;2023-03-04T11:01:09;14.23;;;2.03;;
52948;SDS011;38812;50.942;3.644;2023-03-04T11:03:40;7.03;;;1.65;;
52948;SDS011;38812;50.942;3.644;2023-03-04T11:06:17;10.30;;;3.20;;
52948;SDS011;38812;50.942;3.644;2023-03-04T11:08:51;3.80;;;1.45;;
52948;SDS011;38812;50.942;3.644;2023-03-04T11:13:55;7.88;;;1.92;;
52948;SDS011;38812;50.942;3.644;2023-03-04T11:16:28;10.40;;;1.67;;
52948;SDS011;38812;50.942;3.644;2023-03-04T11:19:00;7.30;;;1.98;;
52948;SDS011;38812;50.942;3.644;2023-03-04T11:21:30;4.85;;;1.70;;
52948;SDS011;38812;50.942;3.644;2023-03-04T11:24:02;11.85;;;2.55;;
52948;SDS011;38812;50.942;3.644;2023-03-04T11:26:32;6.15;;;1.50;;
52948;SDS011;38812;50.942;3.644;2023-03-04T11:37:09;11.50;;;1.90;;
52948;SDS011;38812;50.942;3.644;2023-03-04T11:39:45;7.03;;;1.95;;
52948;SDS011;38812;50.942;3.644;2023-03-04T11:42:19;5.60;;;1.83;;
52948;SDS011;38812;50.942;3.644;2023-03-04T11:44:48;14.50;;;1.98;;
52948;SDS011;38812;50.942;3.644;2023-03-04T11:47:21;4.78;;;1.70;;
52948;SDS011;38812;50.942;3.644;2023-03-04T12:03:16;11.63;;;2.92;;
52948;SDS011;38812;50.942;3.644;2023-03-04T12:14:20;5.38;;;1.30;;
52948;SDS011;38812;50.942;3.644;2023-03-04T12:25:11;8.20;;;1.58;;
52948;SDS011;38812;50.942;3.644;2023-03-04T12:28:02;9.48;;;2.28;;
52948;SDS011;38812;50.942;3.644;2023-03-04T12:38:34;4.88;;;1.27;;
52948;SDS011;38812;50.942;3.644;2023-03-04T12:46:21;4.32;;;0.80;;
52948;SDS011;38812;50.942;3.644;2023-03-04T12:52:02;4.28;;;1.17;;
52948;SDS011;38812;50.942;3.644;2023-03-04T12:54:38;6.03;;;1.33;;
52948;SDS011;38812;50.942;3.644;2023-03-04T12:57:08;4.25;;;1.27;;
52948;SDS011;38812;50.942;3.644;2023-03-04T12:59:36;5.05;;;0.80;;
52948;SDS011;38812;50.942;3.644;2023-03-04T13:02:20;3.00;;;0.70;;
52948;SDS011;38812;50.942;3.644;2023-03-04T13:04:59;3.05;;;0.55;;
52948;SDS011;38812;50.942;3.644;2023-03-04T13:10:21;4.95;;;0.82;;
52948;SDS011;38812;50.942;3.644;2023-03-04T13:15:30;3.45;;;1.40;;
52948;SDS011;38812;50.942;3.644;2023-03-04T13:22:54;0.82;;;0.20;;
52948;SDS011;38812;50.942;3.644;2023-03-04T13:43:50;1.75;;;0.45;;
52948;SDS011;38812;50.942;3.644;2023-03-04T13:49:04;0.60;;;0.47;;
52948;SDS011;38812;50.942;3.644;2023-03-04T13:51:32;2.53;;;0.80;;
52948;SDS011;38812;50.942;3.644;2023-03-04T13:59:09;1.65;;;0.52;;
52948;SDS011;38812;50.942;3.644;2023-03-04T14:04:15;2.30;;;0.65;;
52948;SDS011;38812;50.942;3.644;2023-03-04T14:06:44;3.55;;;0.60;;
52948;SDS011;38812;50.942;3.644;2023-03-04T14:09:14;4.00;;;0.85;;
52948;SDS011;38812;50.942;3.644;2023-03-04T14:11:44;2.17;;;1.00;;
52948;SDS011;38812;50.942;3.644;2023-03-04T14:14:12;5.30;;;0.95;;
52948;SDS011;38812;50.942;3.644;2023-03-04T14:16:44;2.35;;;0.70;;
52948;SDS011;38812;50.942;3.644;2023-03-04T14:19:15;1.75;;;0.85;;
52948;SDS011;38812;50.942;3.644;2023-03-04T14:21:45;1.95;;;1.00;;
52948;SDS011;38812;50.942;3.644;2023-03-04T14:24:12;2.65;;;0.93;;
52948;SDS011;38812;50.942;3.644;2023-03-04T14:26:40;2.67;;;0.70;;
52948;SDS011;38812;50.942;3.644;2023-03-04T14:32:03;3.92;;;1.27;;
52948;SDS011;38812;50.942;3.644;2023-03-04T14:34:34;3.05;;;0.95;;
52948;SDS011;38812;50.942;3.644;2023-03-04T14:37:02;3.57;;;0.63;;
52948;SDS011;38812;50.942;3.644;2023-03-04T14:39:30;5.20;;;1.20;;
52948;SDS011;38812;50.942;3.644;2023-03-04T14:42:09;2.97;;;0.90;;
52948;SDS011;38812;50.942;3.644;2023-03-04T14:44:48;4.25;;;0.93;;
52948;SDS011;38812;50.942;3.644;2023-03-04T14:49:43;2.42;;;1.13;;
52948;SDS011;38812;50.942;3.644;2023-03-04T14:55:21;1.80;;;0.88;;
52948;SDS011;38812;50.942;3.644;2023-03-04T14:57:50;4.45;;;0.88;;
52948;SDS011;38812;50.942;3.644;2023-03-04T15:00:32;2.65;;;0.93;;
52948;SDS011;38812;50.942;3.644;2023-03-04T15:03:24;1.30;;;0.52;;
52948;SDS011;38812;50.942;3.644;2023-03-04T15:05:52;3.03;;;0.73;;
52948;SDS011;38812;50.942;3.644;2023-03-04T15:08:24;4.35;;;1.05;;
52948;SDS011;38812;50.942;3.644;2023-03-04T15:10:53;4.68;;;1.00;;
52948;SDS011;38812;50.942;3.644;2023-03-04T15:13:40;6.60;;;1.08;;
52948;SDS011;38812;50.942;3.644;2023-03-04T15:16:08;7.32;;;1.27;;
52948;SDS011;38812;50.942;3.644;2023-03-04T15:18:34;4.40;;;0.95;;
52948;SDS011;38812;50.942;3.644;2023-03-04T15:23:44;6.07;;;1.13;;
52948;SDS011;38812;50.942;3.644;2023-03-04T15:26:09;3.53;;;1.20;;
52948;SDS011;38812;50.942;3.644;2023-03-04T15:28:37;3.78;;;1.15;;
52948;SDS011;38812;50.942;3.644;2023-03-04T15:31:04;3.35;;;0.90;;
52948;SDS011;38812;50.942;3.644;2023-03-04T15:33:30;1.52;;;0.70;;
52948;SDS011;38812;50.942;3.644;2023-03-04T15:35:57;3.08;;;0.70;;
52948;SDS011;38812;50.942;3.644;2023-03-04T15:38:24;2.45;;;0.30;;
52948;SDS011;38812;50.942;3.644;2023-03-04T15:40:51;5.03;;;0.80;;
52948;SDS011;38812;50.942;3.644;2023-03-04T15:43:18;2.47;;;0.70;;
52948;SDS011;38812;50.942;3.644;2023-03-04T15:45:45;2.10;;;0.90;;
52948;SDS011;38812;50.942;3.644;2023-03-04T15:48:13;3.53;;;0.52;;
52948;SDS011;38812;50.942;3.644;2023-03-04T15:50:41;2.05;;;0.90;;
52948;SDS011;38812;50.942;3.644;2023-03-04T15:53:16;1.33;;;0.50;;
52948;SDS011;38812;50.942;3.644;2023-03-04T15:55:49;1.17;;;0.50;;
52948;SDS011;38812;50.942;3.644;2023-03-04T15:58:15;1.75;;;0.60;;
52948;SDS011;38812;50.942;3.644;2023-03-04T16:00:40;2.35;;;0.90;;
52948;SDS011;38812;50.942;3.644;2023-03-04T16:03:08;1.92;;;1.08;;
52948;SDS011;38812;50.942;3.644;2023-03-04T16:05:38;8.25;;;1.98;;
52948;SDS011;38812;50.942;3.644;2023-03-04T16:08:03;2.28;;;1.30;;
52948;SDS011;38812;50.942;3.644;2023-03-04T16:10:29;4.25;;;1.10;;
52948;SDS011;38812;50.942;3.644;2023-03-04T16:12:56;5.40;;;1.30;;
52948;SDS011;38812;50.942;3.644;2023-03-04T16:15:23;2.28;;;0.85;;
52948;SDS011;38812;50.942;3.644;2023-03-04T16:17:50;2.75;;;1.60;;
52948;SDS011;38812;50.942;3.644;2023-03-04T16:20:17;3.72;;;0.70;;
52948;SDS011;38812;50.942;3.644;2023-03-04T16:22:46;2.35;;;0.70;;
52948;SDS011;38812;50.942;3.644;2023-03-04T16:25:14;4.55;;;0.70;;
52948;SDS011;38812;50.942;3.644;2023-03-04T16:27:42;0.98;;;0.50;;
52948;SDS011;38812;50.942;3.644;2023-03-04T16:30:12;3.78;;;0.75;;
52948;SDS011;38812;50.942;3.644;2023-03-04T16:32:42;3.58;;;0.80;;
52948;SDS011;38812;50.942;3.644;2023-03-04T16:35:08;2.17;;;0.88;;
52948;SDS011;38812;50.942;3.644;2023-03-04T16:37:34;3.00;;;1.30;;
52948;SDS011;38812;50.942;3.644;2023-03-04T16:39:59;4.38;;;1.30;;
52948;SDS011;38812;50.942;3.644;2023-03-04T16:42:25;4.55;;;2.15;;
52948;SDS011;38812;50.942;3.644;2023-03-04T16:44:51;3.30;;;1.00;;
52948;SDS011;38812;50.942;3.644;2023-03-04T16:47:18;3.60;;;1.40;;
52948;SDS011;38812;50.942;3.644;2023-03-04T16:49:43;6.63;;;1.80;;
52948;SDS011;38812;50.942;3.644;2023-03-04T16:52:23;10.52;;;1.25;;
52948;SDS011;38812;50.942;3.644;2023-03-04T16:54:50;12.35;;;1.50;;
52948;SDS011;38812;50.942;3.644;2023-03-04T16:57:16;4.78;;;1.60;;